Time;durP1;ratioP1;P1;durP2;ratioP2;P2;SDS_P1;SDS_P2;PMS_P1;PMS_P2;Temp;Humidity;BMP_temperature;BMP_pressure;BME280_temperature;BME280_humidity;BME280_pressure;Samples;Min_cycle;Max_cycle;Signal;HPM_P1;HPM_P2
2024/03/09 00:02:22;;;;;;;2.67;1.60;;;;;;;-145.63;44.39;39182.66;5032988;28;20034;-64
2024/03/09 00:05:06;;;;;;;2.50;1.52;;;;;;;-145.63;44.61;39176.78;5032625;28;20036;-63
2024/03/09 00:08:17;;;;;;;2.10;1.40;;;;;;;-145.63;44.74;39192.44;5032818;28;20040;-64
2024/03/09 00:10:49;;;;;;;2.03;1.40;;;;;;;-145.63;44.46;39188.53;5033106;28;20034;-63
2024/03/09 00:13:26;;;;;;;5.10;1.35;;;;;;;-145.63;44.29;39145.50;5031563;28;20232;-64
2024/03/09 00:15:59;;;;;;;1.88;1.38;;;;;;;-145.63;43.71;39184.59;5032829;28;20037;-64
2024/03/09 00:18:39;;;;;;;2.00;1.40;;;;;;;-145.63;44.46;39194.38;5032555;28;20485;-62
2024/03/09 00:21:30;;;;;;;2.13;1.63;;;;;;;-145.63;44.08;39170.91;5034331;28;20032;-62
2024/03/09 00:24:20;;;;;;;1.58;1.23;;;;;;;-145.63;44.41;39190.47;5036012;28;20033;-63
2024/03/09 00:26:49;;;;;;;2.22;1.40;;;;;;;-145.63;44.16;39170.91;5036044;28;20063;-62
2024/03/09 00:29:30;;;;;;;1.80;1.17;;;;;;;-145.63;44.09;39035.97;5036602;28;20108;-64
2024/03/09 00:32:03;;;;;;;3.10;1.23;;;;;;;-145.63;44.49;39151.38;5015370;28;20490;-64
2024/03/09 00:34:35;;;;;;;2.22;1.40;;;;;;;-145.63;44.16;39168.97;5031643;28;20042;-63
2024/03/09 00:37:07;;;;;;;1.48;1.15;;;;;;;-145.63;43.83;39090.75;5038520;28;20132;-64
2024/03/09 00:40:09;;;;;;;1.58;0.98;;;;;;;-145.63;43.40;39206.13;5047746;28;20485;-63
2024/03/09 00:42:57;;;;;;;2.90;1.15;;;;;;;-145.63;43.45;39176.78;5035648;28;20035;-63
2024/03/09 00:45:34;;;;;;;1.95;1.10;;;;;;;-145.63;44.02;39182.66;5043865;28;20048;-64
2024/03/09 00:48:09;;;;;;;1.30;1.00;;;;;;;-145.63;43.37;39143.53;5052249;28;20083;-63
2024/03/09 00:53:50;;;;;;;1.88;1.10;;;;;;;-145.63;43.60;39161.13;5035314;28;20025;-63
2024/03/09 00:56:21;;;;;;;1.42;1.00;;;;;;;-145.63;43.81;39170.91;5036020;28;20475;-63
2024/03/09 00:59:05;;;;;;;1.27;1.13;;;;;;;-145.63;43.56;39165.06;5036467;28;20088;-66
2024/03/09 01:01:36;;;;;;;1.30;1.08;;;;;;;-145.63;43.34;39165.06;5034193;28;20470;-63
2024/03/09 01:04:19;;;;;;;4.38;1.00;;;;;;;-145.63;43.77;39163.09;5035914;28;20029;-64
2024/03/09 01:07:15;;;;;;;1.02;0.90;;;;;;;-145.63;43.85;39135.72;5035425;28;20033;-63
2024/03/09 01:10:08;;;;;;;;;;;;;;;-145.63;43.98;39129.84;5035444;28;20038;-64
2024/03/09 01:12:49;;;;;;;2.65;1.17;;;;;;;-145.63;44.54;39159.19;5034025;28;19963;-62
2024/03/09 01:15:27;;;;;;;3.92;1.00;;;;;;;-145.63;44.27;39163.09;5033863;28;20033;-62
2024/03/09 01:17:53;;;;;;;1.52;0.98;;;;;;;-145.63;44.51;39149.41;5034870;28;20029;-63
2024/03/09 01:20:30;;;;;;;1.80;0.93;;;;;;;-145.63;44.18;39151.38;5035536;28;20033;-62
2024/03/09 01:26:20;;;;;;;1.40;0.90;;;;;;;-145.63;44.48;39139.63;5014141;28;20044;-64
2024/03/09 01:28:48;;;;;;;2.90;0.82;;;;;;;-145.63;44.79;39159.19;5031885;28;20037;-63
2024/03/09 01:31:29;;;;;;;1.48;1.10;;;;;;;-145.63;44.79;39192.44;5034097;28;20051;-63
2024/03/09 01:34:15;;;;;;;2.63;1.23;;;;;;;-145.63;44.77;39149.41;5033773;28;20045;-63
2024/03/09 01:37:11;;;;;;;2.85;1.38;;;;;;;-145.63;44.69;39163.09;5035295;28;20029;-63
2024/03/09 01:39:54;;;;;;;2.38;1.08;;;;;;;-145.63;44.23;39129.84;5033784;28;20401;-63
2024/03/09 01:42:23;;;;;;;2.10;0.85;;;;;;;-145.63;44.57;39262.84;5034913;28;20449;-63
2024/03/09 01:44:52;;;;;;;1.30;0.85;;;;;;;-145.63;44.25;39192.44;5033684;28;20512;-63
2024/03/09 01:47:32;;;;;;;1.27;1.00;;;;;;;-145.63;44.63;39145.50;5035165;28;20100;-63
2024/03/09 01:50:03;;;;;;;3.28;1.20;;;;;;;-145.63;44.81;39157.22;5034948;28;20037;-63
2024/03/09 01:52:35;;;;;;;1.17;0.85;;;;;;;-145.63;45.11;39161.13;5033570;28;20454;-62
2024/03/09 01:55:13;;;;;;;2.60;0.98;;;;;;;-145.63;45.34;39157.22;5033471;28;20060;-63
2024/03/09 01:57:54;;;;;;;2.58;0.95;;;;;;;-145.63;45.99;39143.53;5034797;28;20103;-62
2024/03/09 02:00:23;;;;;;;2.03;0.93;;;;;;;-145.63;45.15;39122.03;5034659;28;20057;-63
2024/03/09 02:02:56;;;;;;;1.77;1.15;;;;;;;-145.63;45.86;39120.06;5033348;28;20467;-64
2024/03/09 02:06:01;;;;;;;1.85;0.88;;;;;;;-145.63;45.53;39135.72;5034777;28;20116;-64
2024/03/09 02:08:48;;;;;;;0.98;0.70;;;;;;;-145.63;45.89;39170.91;5014617;28;20057;-63
2024/03/09 02:11:43;;;;;;;1.40;0.80;;;;;;;-145.63;45.03;39139.63;5014432;28;20033;-62
2024/03/09 02:14:09;;;;;;;1.73;1.33;;;;;;;-145.63;45.80;39137.69;5013665;28;20025;-62
2024/03/09 02:16:36;;;;;;;3.42;1.92;;;;;;;-145.63;45.76;39122.03;5030715;28;20076;-62
2024/03/09 02:19:01;;;;;;;2.28;1.25;;;;;;;-145.63;45.56;39157.22;5034216;28;20029;-62
2024/03/09 02:21:34;;;;;;;1.80;0.80;;;;;;;-145.63;45.55;39133.75;5016453;28;20052;-64
2024/03/09 02:24:23;;;;;;;2.25;0.88;;;;;;;-145.63;45.99;39139.63;5034513;28;20061;-64
2024/03/09 02:26:50;;;;;;;1.20;0.80;;;;;;;-145.63;46.21;39133.75;5032805;28;20041;-64
2024/03/09 02:29:40;;;;;;;2.40;1.10;;;;;;;-145.63;46.43;39137.69;5034217;28;20033;-64
2024/03/09 02:32:33;;;;;;;1.23;0.77;;;;;;;-145.63;46.59;39151.38;5014218;28;20106;-64
2024/03/09 02:35:14;;;;;;;0.98;0.90;;;;;;;-145.63;46.53;39145.50;5032496;28;20053;-63
2024/03/09 02:37:39;;;;;;;1.38;0.75;;;;;;;-145.63;46.52;39159.19;5048598;28;20064;-63
2024/03/09 02:40:26;;;;;;;3.00;1.17;;;;;;;-145.63;46.36;39139.63;5040753;28;20064;-62
2024/03/09 02:43:07;;;;;;;2.70;1.25;;;;;;;-145.63;46.50;39133.75;5033416;28;20474;-62
2024/03/09 02:45:43;;;;;;;1.92;1.20;;;;;;;-145.63;46.57;39165.06;5033417;28;20029;-63
2024/03/09 02:48:24;;;;;;;4.32;1.30;;;;;;;-145.63;47.16;39145.50;5015614;28;20049;-63
2024/03/09 02:51:26;;;;;;;2.13;0.90;;;;;;;-145.63;46.61;39137.69;5033218;28;20112;-65
2024/03/09 02:54:19;;;;;;;1.00;0.90;;;;;;;-145.63;46.64;39172.88;5051959;28;20025;-64
2024/03/09 02:56:53;;;;;;;2.20;1.15;;;;;;;-145.63;47.21;39180.69;5034579;28;20063;-64
2024/03/09 03:03:45;;;;;;;1.65;1.00;;;;;;;-145.63;46.93;39145.50;5029200;28;20044;-64
2024/03/09 03:05:03;;;;;;;1.15;0.88;;;;;;;-145.63;47.39;39135.72;5033112;28;20048;-63
2024/03/09 03:07:32;;;;;;;2.65;1.30;;;;;;;-145.63;46.80;39129.84;5033323;28;20044;-64
2024/03/09 03:10:08;;;;;;;2.38;1.42;;;;;;;-145.63;46.86;39135.72;5043877;28;20111;-64
2024/03/09 03:12:33;;;;;;;1.27;0.95;;;;;;;-145.63;46.82;39127.91;5046384;28;20068;-65
2024/03/09 03:15:08;;;;;;;2.88;1.20;;;;;;;-145.63;46.90;39118.13;5031842;28;20052;-65
2024/03/09 03:17:40;;;;;;;3.25;1.55;;;;;;;-145.63;46.12;39122.03;5033321;28;20029;-64
2024/03/09 03:20:18;;;;;;;2.13;1.15;;;;;;;-145.63;46.48;39116.16;5033721;28;20067;-65
2024/03/09 03:23:03;;;;;;;1.10;1.00;;;;;;;-145.63;46.61;39147.44;5032379;28;20029;-65
2024/03/09 03:25:48;;;;;;;1.50;1.10;;;;;;;-145.63;46.29;39149.41;5031883;28;20108;-66
2024/03/09 03:28:21;;;;;;;4.38;1.33;;;;;;;-145.63;46.08;39133.75;5033166;28;20075;-64
2024/03/09 03:30:51;;;;;;;2.50;1.38;;;;;;;-145.63;46.79;39125.94;5032918;28;20064;-66
2024/03/09 03:33:56;;;;;;;3.13;1.25;;;;;;;-145.63;46.88;39108.34;5032613;28;20109;-65
2024/03/09 03:36:26;;;;;;;2.47;1.25;;;;;;;-145.63;47.41;39145.50;5033543;28;20100;-66
2024/03/09 03:41:52;;;;;;;3.42;1.50;;;;;;;-145.63;46.88;39122.03;5032704;28;20037;-66
2024/03/09 03:44:33;;;;;;;2.03;1.17;;;;;;;-145.63;47.24;39157.22;5033337;28;20485;-65
2024/03/09 03:46:58;;;;;;;3.00;1.30;;;;;;;-145.63;47.42;39139.63;5032563;28;20025;-65
2024/03/09 03:49:27;;;;;;;3.25;1.60;;;;;;;-145.63;46.96;39094.66;5033371;28;20112;-66
2024/03/09 03:51:55;;;;;;;2.90;1.50;;;;;;;-145.63;46.75;39139.63;5032536;28;20053;-66
2024/03/09 03:57:29;;;;;;;2.00;1.27;;;;;;;-145.63;46.10;39106.38;5036273;28;20025;-67
2024/03/09 04:00:10;;;;;;;2.90;1.35;;;;;;;-145.63;45.38;39112.25;5035102;28;20474;-67
2024/03/09 04:02:42;;;;;;;2.10;1.25;;;;;;;-145.63;45.81;39127.91;5037403;28;20026;-66
2024/03/09 04:05:17;;;;;;;2.35;1.45;;;;;;;-145.63;45.30;39108.34;5036625;28;20401;-67
2024/03/09 04:10:48;;;;;;;1.70;1.52;;;;;;;-145.63;44.69;39008.59;5048853;28;20116;-67
2024/03/09 04:13:23;;;;;;;2.08;1.60;;;;;;;-145.63;44.96;39071.19;5035600;28;20381;-66
2024/03/09 04:16:04;;;;;;;1.65;1.25;;;;;;;-145.63;44.63;39026.19;5036389;28;20480;-65
2024/03/09 04:18:36;;;;;;;2.53;1.77;;;;;;;-145.63;43.94;39084.88;5036513;28;20489;-66
2024/03/09 04:21:23;;;;;;;2.35;1.52;;;;;;;-145.63;44.21;39092.69;5035727;28;20074;-65
2024/03/09 04:23:56;;;;;;;2.63;1.48;;;;;;;-145.63;43.75;39063.34;5034569;28;20029;-64
2024/03/09 04:26:28;;;;;;;2.55;1.38;;;;;;;-145.63;43.47;39032.06;5036394;28;20045;-64
2024/03/09 04:29:01;;;;;;;2.05;1.33;;;;;;;-145.63;44.14;39035.97;5036015;28;20120;-66
2024/03/09 04:31:33;;;;;;;1.90;1.40;;;;;;;-145.63;44.00;39059.44;5048858;28;20029;-65
2024/03/09 04:34:02;;;;;;;;;;;;;;;-145.63;43.80;39037.94;5045194;28;20048;-64
2024/03/09 04:36:30;;;;;;;2.03;1.42;;;;;;;-145.63;44.12;39020.34;5036369;28;19928;-65
2024/03/09 04:39:00;;;;;;;2.35;1.70;;;;;;;-145.63;44.06;39028.16;5034630;28;20036;-66
2024/03/09 04:41:32;;;;;;;2.58;1.50;;;;;;;-145.63;44.02;39063.34;5034922;28;20035;-65
2024/03/09 04:44:04;;;;;;;5.38;2.63;;;;;;;-145.63;43.79;39047.72;5034865;28;20456;-66
2024/03/09 04:46:55;;;;;;;3.00;1.88;;;;;;;-145.63;44.71;39088.78;5015530;28;20034;-65
2024/03/09 04:49:24;;;;;;;3.33;1.80;;;;;;;-145.63;44.14;39063.34;5029066;28;20036;-66
2024/03/09 04:52:02;;;;;;;3.35;1.90;;;;;;;-145.63;44.24;39067.28;5035639;28;20037;-66
2024/03/09 04:54:37;;;;;;;3.45;1.98;;;;;;;-145.63;43.56;39051.63;5034732;28;20040;-66
2024/03/09 04:57:58;;;;;;;2.47;1.75;;;;;;;-145.63;43.74;38981.22;5035081;28;20065;-65
2024/03/09 05:00:43;;;;;;;3.08;1.85;;;;;;;-145.63;43.95;39079.00;5035803;28;20025;-66
2024/03/09 05:03:17;;;;;;;1.90;1.70;;;;;;;-145.63;43.72;39086.81;5067120;28;20037;-67
2024/03/09 05:08:30;;;;;;;3.65;1.88;;;;;;;-145.63;43.52;39063.34;5015756;28;20036;-66
2024/03/09 05:10:58;;;;;;;1.95;1.38;;;;;;;-145.63;43.57;39108.34;5033119;28;20029;-66
2024/03/09 05:13:24;;;;;;;2.40;1.60;;;;;;;-145.63;43.39;38723.09;5035686;28;20078;-66
2024/03/09 05:15:58;;;;;;;2.85;1.75;;;;;;;-145.63;43.11;39057.50;5043346;28;20029;-67
2024/03/09 05:18:36;;;;;;;2.65;1.55;;;;;;;-145.63;43.15;39088.78;5050302;28;20441;-66
2024/03/09 05:21:20;;;;;;;5.57;3.15;;;;;;;-145.63;42.92;39061.41;5035771;28;20029;-67
2024/03/09 05:24:04;;;;;;;2.25;1.42;;;;;;;-145.63;42.88;39059.44;5035668;28;20073;-66
2024/03/09 05:26:35;;;;;;;2.40;1.60;;;;;;;-145.63;42.86;39063.34;5014684;28;20048;-68
2024/03/09 05:29:05;;;;;;;2.20;1.50;;;;;;;-145.63;42.67;39090.75;5033479;28;20033;-67
2024/03/09 05:31:36;;;;;;;3.50;1.60;;;;;;;-145.63;43.06;39075.09;5035369;28;20332;-67
2024/03/09 05:34:18;;;;;;;2.72;1.70;;;;;;;-145.63;42.90;39061.41;5034084;28;20077;-66
2024/03/09 05:37:11;;;;;;;2.63;1.35;;;;;;;-145.63;42.55;39043.81;5035421;28;20433;-68
2024/03/09 05:39:56;;;;;;;2.47;1.75;;;;;;;-145.63;41.24;39088.78;5034924;28;20087;-65
2024/03/09 05:42:55;;;;;;;4.22;1.70;;;;;;;-145.63;40.74;39118.13;5035387;28;20100;-66
2024/03/09 05:45:44;;;;;;;4.28;1.50;;;;;;;-145.63;40.59;39086.81;5035266;28;20458;-66
2024/03/09 05:48:19;;;;;;;1.70;1.38;;;;;;;-145.63;40.15;39047.72;5033786;28;20032;-66
2024/03/09 05:51:00;;;;;;;1.67;1.40;;;;;;;-145.63;40.02;39037.94;5035312;28;20030;-66
2024/03/09 05:53:50;;;;;;;1.60;1.30;;;;;;;-145.63;40.49;39049.66;5014160;28;20112;-67
2024/03/09 05:56:16;;;;;;;3.95;3.10;;;;;;;-145.63;39.64;39016.44;5034918;28;20025;-66
2024/03/09 05:58:48;;;;;;;4.38;1.33;;;;;;;-145.63;39.52;39035.97;5034764;28;20029;-67
2024/03/09 06:01:26;;;;;;;1.50;1.10;;;;;;;-145.63;38.62;39026.19;5033458;28;20065;-65
2024/03/09 06:04:13;;;;;;;1.65;1.23;;;;;;;-145.63;37.40;39055.53;5034695;28;20064;-65
2024/03/09 06:06:48;;;;;;;2.67;1.00;;;;;;;-145.63;37.71;39037.94;5034744;28;20034;-65
2024/03/09 06:09:35;;;;;;;2.40;1.40;;;;;;;-145.63;37.05;39071.19;5034309;28;20025;-66
2024/03/09 06:15:04;;;;;;;5.32;1.20;;;;;;;-145.63;37.80;39014.47;5034453;28;20029;-65
2024/03/09 06:17:32;;;;;;;3.58;1.90;;;;;;;-145.63;36.86;39063.34;5014587;28;20088;-66
2024/03/09 06:20:10;;;;;;;1.88;1.05;;;;;;;-145.63;37.12;39061.41;5030574;28;20410;-65
2024/03/09 06:22:42;;;;;;;2.85;1.42;;;;;;;-145.63;35.95;39022.28;5034403;28;20470;-66
2024/03/09 06:25:22;;;;;;;2.67;1.30;;;;;;;-145.63;35.84;39028.16;5034152;28;20450;-65
2024/03/09 06:28:05;;;;;;;2.83;1.17;;;;;;;-145.63;35.89;39104.44;5033964;28;20108;-65
2024/03/09 06:30:36;;;;;;;2.53;1.83;;;;;;;-145.63;35.71;39039.88;5033077;28;20441;-65
2024/03/09 06:33:31;;;;;;;1.75;1.10;;;;;;;-145.63;35.59;39051.63;5034052;28;20397;-65
2024/03/09 06:36:04;;;;;;;3.10;0.90;;;;;;;-145.63;35.83;39090.75;5033804;28;20124;-64
2024/03/09 06:41:40;;;;;;;3.40;1.17;;;;;;;-145.63;34.40;39071.19;5034209;28;20035;-65
2024/03/09 06:44:17;;;;;;;3.95;1.00;;;;;;;-145.63;35.13;39067.28;5033876;28;20030;-66
2024/03/09 06:46:54;;;;;;;2.08;0.73;;;;;;;-145.63;34.26;39065.31;5033855;28;20352;-66
2024/03/09 06:49:25;;;;;;;1.30;0.82;;;;;;;-145.63;34.03;39088.78;5033923;28;20088;-65
2024/03/09 06:51:56;;;;;;;1.30;0.80;;;;;;;-145.63;33.04;38901.03;5036061;28;20499;-64
2024/03/09 06:54:45;;;;;;;3.85;0.95;;;;;;;-145.63;33.62;39051.63;5033221;28;20084;-67
2024/03/09 06:57:35;;;;;;;1.38;0.90;;;;;;;-145.63;33.41;39065.31;5034363;28;20029;-66
2024/03/09 07:00:13;;;;;;;4.18;0.90;;;;;;;-145.63;32.23;39037.94;5033227;28;20121;-66
2024/03/09 07:02:52;;;;;;;1.20;1.10;;;;;;;-145.63;32.42;39065.31;5032372;28;20048;-67
2024/03/09 07:05:43;;;;;;;1.65;0.93;;;;;;;-145.63;31.98;39053.59;5032364;28;20037;-65
2024/03/09 07:08:16;;;;;;;1.20;1.10;;;;;;;-145.63;30.86;38975.34;5031660;28;20030;-65
2024/03/09 07:10:44;;;;;;;3.95;0.80;;;;;;;-145.63;31.57;38883.44;5033287;28;20079;-67
2024/03/09 07:13:31;;;;;;;2.65;1.27;;;;;;;-145.63;31.81;38971.44;5032077;28;20044;-66
2024/03/09 07:16:15;;;;;;;4.63;1.00;;;;;;;-145.63;30.80;39047.72;5032943;28;20033;-65
2024/03/09 07:19:31;;;;;;;1.88;1.20;;;;;;;-145.63;30.50;38998.81;5031070;28;20588;-66
2024/03/09 07:22:15;;;;;;;3.22;0.90;;;;;;;-145.63;30.13;39167.00;5040768;28;20029;-65
2024/03/09 07:25:05;;;;;;;0.90;0.90;;;;;;;-145.63;29.78;39122.03;5047383;28;20109;-66
2024/03/09 07:28:00;;;;;;;1.83;0.73;;;;;;;-145.63;29.73;39098.56;5033699;28;20119;-65
2024/03/09 07:31:03;;;;;;;2.45;0.88;;;;;;;-145.63;29.26;38938.19;5032726;28;20045;-66
2024/03/09 07:33:45;;;;;;;2.22;1.13;;;;;;;-145.63;28.83;38965.56;5032272;28;20041;-67
2024/03/09 07:36:29;;;;;;;2.35;0.90;;;;;;;-145.63;28.90;39094.66;5032585;28;20037;-66
2024/03/09 07:39:01;;;;;;;2.92;1.02;;;;;;;-145.63;27.50;39077.06;5032638;28;20091;-65
2024/03/09 07:41:30;;;;;;;2.88;1.08;;;;;;;-145.63;27.25;39041.84;5013160;28;20034;-67
2024/03/09 07:44:22;;;;;;;3.40;1.00;;;;;;;-145.63;26.54;38996.88;5029070;28;20040;-65
2024/03/09 07:49:44;;;;;;;5.20;1.17;;;;;;;-145.63;26.93;38983.19;5032667;28;20030;-67
2024/03/09 07:52:25;;;;;;;1.90;1.10;;;;;;;-145.63;26.20;39094.66;5031821;28;20078;-65
2024/03/09 07:54:56;;;;;;;1.65;1.10;;;;;;;-145.63;26.29;39086.81;5032496;28;20056;-65
2024/03/09 07:57:40;;;;;;;1.15;1.08;;;;;;;-145.63;25.83;39094.66;5032225;28;20033;-68
2024/03/09 08:00:35;;;;;;;0.98;0.85;;;;;;;-145.63;26.23;39063.34;5032867;28;20037;-67
2024/03/09 08:03:02;;;;;;;1.42;1.15;;;;;;;-145.63;25.44;39086.81;4933345;29;20390;-68
2024/03/09 08:05:28;;;;;;;2.25;1.13;;;;;;;-145.63;25.30;39120.06;4952440;28;20488;-65
2024/03/09 08:08:09;;;;;;;2.05;0.80;;;;;;;-145.63;25.16;39129.84;4967638;28;20046;-67
2024/03/09 08:10:52;;;;;;;1.00;0.90;;;;;;;-145.63;25.88;39178.75;4958723;28;20035;-66
2024/03/09 08:13:24;;;;;;;3.08;1.30;;;;;;;-145.63;26.21;39178.75;4936481;29;20126;-62
2024/03/09 08:15:59;;;;;;;1.00;1.00;;;;;;;-145.63;25.95;39110.28;4958823;28;20045;-66
2024/03/09 08:18:37;;;;;;;2.20;1.40;;;;;;;-145.63;26.27;39182.66;4968649;28;20039;-65
2024/03/09 08:21:09;;;;;;;1.70;1.15;;;;;;;-145.63;27.13;39176.78;4952282;28;20039;-65
2024/03/09 08:27:24;;;;;;;1.27;1.02;;;;;;;-145.63;26.10;39188.53;4936479;28;20078;-68
2024/03/09 08:29:56;;;;;;;2.70;1.10;;;;;;;-145.63;25.96;39100.50;4955582;28;20070;-65
2024/03/09 08:32:30;;;;;;;1.42;0.98;;;;;;;-145.63;24.95;39039.88;4952966;28;20412;-64
2024/03/09 08:35:10;;;;;;;1.38;0.95;;;;;;;-145.63;25.12;39227.63;4936069;29;20433;-66
2024/03/09 08:38:00;;;;;;;4.50;1.15;;;;;;;-145.63;25.58;39112.25;4952384;29;20055;-65
2024/03/09 08:43:50;;;;;;;1.15;1.00;;;;;;;-145.63;25.59;39116.16;5035943;28;20144;-64
2024/03/09 08:46:27;;;;;;;1.50;0.90;;;;;;;-145.63;25.41;39167.00;5036066;28;20496;-65
2024/03/09 08:48:58;;;;;;;2.58;1.13;;;;;;;-145.63;26.47;39106.38;5034663;28;20021;-64
2024/03/09 08:51:30;;;;;;;1.63;1.08;;;;;;;-145.63;25.91;39079.00;5035966;28;20064;-63
2024/03/09 08:53:59;;;;;;;1.20;1.10;;;;;;;-145.63;25.16;39069.22;5034413;28;20055;-64
2024/03/09 08:57:08;;;;;;;3.22;1.10;;;;;;;-145.63;25.51;39098.56;5035382;28;20516;-65
2024/03/09 08:59:59;;;;;;;2.28;0.82;;;;;;;-145.63;25.32;39110.28;5027880;28;20533;-64
2024/03/09 09:02:33;;;;;;;3.63;1.40;;;;;;;-145.63;24.94;39059.44;5034043;28;20465;-64
2024/03/09 09:05:21;;;;;;;4.40;1.50;;;;;;;-145.63;25.16;39184.59;5065180;28;20083;-64
2024/03/09 09:10:43;;;;;;;1.85;1.20;;;;;;;-145.63;24.79;39212.00;5043013;28;20021;-62
2024/03/09 09:13:24;;;;;;;3.20;1.00;;;;;;;-145.63;25.30;39125.94;5044972;28;20032;-64
2024/03/09 09:15:55;;;;;;;1.23;1.10;;;;;;;-145.63;24.80;39090.75;5048782;28;20084;-63
2024/03/09 09:18:39;;;;;;;1.88;1.20;;;;;;;-145.63;24.45;39125.94;5035222;28;20510;-64
2024/03/09 09:21:14;;;;;;;1.70;1.60;;;;;;;-145.63;24.74;39098.56;5033845;28;20402;-64
2024/03/09 09:23:45;;;;;;;1.45;1.20;;;;;;;-145.63;24.77;39106.38;5033925;28;20037;-63
2024/03/09 09:26:10;;;;;;;1.13;0.98;;;;;;;-145.63;25.08;39174.84;5034699;28;20055;-65
2024/03/09 09:28:36;;;;;;;4.40;1.20;;;;;;;-145.63;25.71;39114.22;5035116;28;20112;-64
2024/03/09 09:31:03;;;;;;;2.35;1.50;;;;;;;-145.63;24.75;39161.13;5040927;28;20118;-63
2024/03/09 09:33:28;;;;;;;1.40;1.20;;;;;;;-145.63;24.44;39094.66;5051639;28;20036;-66
2024/03/09 09:36:01;;;;;;;0.93;0.90;;;;;;;-145.63;24.13;39106.38;5034691;28;20033;-63
2024/03/09 09:42:18;;;;;;;2.22;1.20;;;;;;;-145.63;24.48;39135.72;5042024;28;20064;-64
2024/03/09 09:44:48;;;;;;;1.95;1.60;;;;;;;-145.63;24.24;39192.44;5044948;28;20052;-63
2024/03/09 09:47:14;;;;;;;1.40;1.30;;;;;;;-145.63;24.84;39168.97;5047299;28;20032;-63
2024/03/09 09:49:45;;;;;;;2.80;1.52;;;;;;;-145.63;24.86;39168.97;5040907;28;20033;-64
2024/03/09 09:52:12;;;;;;;1.95;1.10;;;;;;;-145.63;26.66;39237.41;5042668;28;20028;-63
2024/03/09 09:55:24;;;;;;;1.30;1.20;;;;;;;-145.63;26.28;39165.06;5050011;28;20046;-64
2024/03/09 10:04:23;;;;;;;2.35;1.15;;;;;;;-145.63;26.24;39149.41;5053949;28;20112;-63
2024/03/09 10:06:50;;;;;;;1.58;1.00;;;;;;;-145.63;26.08;39415.38;5052483;28;20029;-65
2024/03/09 10:09:28;;;;;;;3.20;1.15;;;;;;;-145.63;25.64;38961.66;5033877;28;20099;-65
2024/03/09 10:11:57;;;;;;;2.35;1.00;;;;;;;-145.63;25.75;39123.97;5033980;28;20091;-63
2024/03/09 10:14:48;;;;;;;1.52;1.23;;;;;;;-145.63;26.63;39129.84;5039056;28;20117;-64
2024/03/09 10:17:55;;;;;;;1.67;1.10;;;;;;;-145.63;25.79;39120.06;5034239;28;20036;-64
2024/03/09 10:20:29;;;;;;;3.40;1.52;;;;;;;-145.63;26.03;39151.38;5033627;28;20032;-64
2024/03/09 10:23:35;;;;;;;2.55;1.10;;;;;;;-145.63;27.72;39182.66;5034040;28;20485;-62
2024/03/09 10:26:10;;;;;;;1.70;1.33;;;;;;;-145.63;26.66;39157.22;5031841;28;20071;-64
2024/03/09 10:29:04;;;;;;;2.25;0.90;;;;;;;-145.63;25.38;39174.84;5033396;28;20025;-64
2024/03/09 10:31:58;;;;;;;2.95;1.50;;;;;;;-145.63;26.46;39133.75;5039001;28;20025;-63
2024/03/09 10:34:30;;;;;;;3.38;1.30;;;;;;;-145.63;27.12;39137.69;5051927;28;20120;-63
2024/03/09 10:37:26;;;;;;;1.20;1.10;;;;;;;-145.63;26.70;39125.94;5044778;28;20033;-63
2024/03/09 10:39:57;;;;;;;1.92;1.10;;;;;;;-145.63;26.55;39129.84;5033254;28;20049;-62
2024/03/09 10:42:39;;;;;;;1.08;1.05;;;;;;;-145.63;26.34;39133.75;5034898;28;20125;-64
2024/03/09 10:45:33;;;;;;;1.80;1.27;;;;;;;-145.63;25.67;39123.97;5048449;28;20032;-64
2024/03/09 10:51:18;;;;;;;2.63;1.60;;;;;;;-145.63;27.86;39176.78;5034423;28;20037;-64
2024/03/09 10:54:09;;;;;;;1.65;1.40;;;;;;;-145.63;26.93;39168.97;5021374;28;20047;-63
2024/03/09 10:56:39;;;;;;;1.88;1.20;;;;;;;-145.63;27.23;39180.69;5052810;28;20055;-64
2024/03/09 10:59:09;;;;;;;1.25;1.10;;;;;;;-145.63;25.81;39163.09;5037154;28;20025;-63
2024/03/09 11:01:49;;;;;;;2.47;1.17;;;;;;;-145.63;25.18;39135.72;5064350;28;20334;-63
2024/03/09 11:04:33;;;;;;;2.42;1.20;;;;;;;-145.63;26.43;39143.53;5022866;28;20088;-63
2024/03/09 11:07:20;;;;;;;2.08;1.35;;;;;;;-145.63;26.72;39127.91;5033091;28;20044;-63
2024/03/09 11:09:55;;;;;;;3.28;1.15;;;;;;;-145.63;26.40;39157.22;5031540;28;20057;-63
2024/03/09 11:12:36;;;;;;;1.48;1.08;;;;;;;-145.63;27.27;39122.03;5032706;28;20037;-63
2024/03/09 11:15:21;;;;;;;2.00;1.17;;;;;;;-145.63;26.51;39151.38;5038599;28;20742;-62
2024/03/09 11:18:15;;;;;;;5.50;1.42;;;;;;;-145.63;26.87;39125.94;5027895;28;20025;-62
2024/03/09 11:21:03;;;;;;;1.50;1.00;;;;;;;-145.63;26.73;39157.22;5013018;28;20033;-63
2024/03/09 11:23:33;;;;;;;3.22;1.58;;;;;;;-145.63;29.42;39157.22;5037385;28;20037;-63
2024/03/09 11:26:39;;;;;;;2.78;1.60;;;;;;;-145.63;27.67;39129.84;5052221;28;20025;-63
2024/03/09 11:29:39;;;;;;;2.30;1.00;;;;;;;-145.63;27.55;39137.69;5035203;28;20049;-63
2024/03/09 11:32:23;;;;;;;2.72;1.25;;;;;;;-145.63;26.53;39147.44;5036612;28;20026;-62
2024/03/09 11:35:31;;;;;;;2.08;1.38;;;;;;;-145.63;26.98;39123.97;5031992;28;20080;-63
2024/03/09 11:41:24;;;;;;;2.10;1.20;;;;;;;-145.63;27.05;39159.19;5043726;28;20037;-64
2024/03/09 11:43:59;;;;;;;1.60;1.30;;;;;;;-145.63;27.38;39159.19;5021450;28;20041;-64
2024/03/09 11:46:36;;;;;;;1.80;1.23;;;;;;;-145.63;27.62;39129.84;5032425;28;20033;-63
2024/03/09 11:49:06;;;;;;;2.00;1.52;;;;;;;-145.63;27.28;39155.28;5031079;28;20076;-64
2024/03/09 11:51:48;;;;;;;1.02;0.98;;;;;;;-145.63;25.03;39149.41;5032166;28;20506;-64
2024/03/09 11:54:43;;;;;;;1.30;0.93;;;;;;;-145.63;26.44;39141.59;5032239;28;20048;-64
2024/03/09 11:57:37;;;;;;;2.17;1.23;;;;;;;-145.63;26.38;39170.91;5032445;28;20033;-64
2024/03/09 12:00:07;;;;;;;1.58;1.05;;;;;;;-145.63;26.04;39114.22;5032172;28;20030;-64
2024/03/09 12:02:37;;;;;;;3.08;1.00;;;;;;;-145.63;26.81;38850.19;5032040;28;20037;-64
2024/03/09 12:05:04;;;;;;;2.40;1.40;;;;;;;-145.63;26.91;39155.28;5030727;28;20367;-64
2024/03/09 12:07:30;;;;;;;2.85;1.30;;;;;;;-145.63;27.31;39178.75;5032011;28;20377;-64
2024/03/09 12:10:19;;;;;;;1.20;1.10;;;;;;;-145.63;27.60;39165.06;5030728;28;20029;-64
2024/03/09 12:12:45;;;;;;;2.75;1.38;;;;;;;-145.63;26.68;39170.91;5030930;28;20387;-63
2024/03/09 12:18:31;;;;;;;2.72;1.02;;;;;;;-145.63;26.80;39167.00;5013865;28;20026;-63
2024/03/09 12:21:15;;;;;;;2.55;1.10;;;;;;;-145.63;27.95;39127.91;5016181;28;20431;-65
2024/03/09 12:24:12;;;;;;;2.05;1.05;;;;;;;-145.63;27.83;39122.03;5035422;28;20064;-62
2024/03/09 12:26:54;;;;;;;1.00;0.98;;;;;;;-145.63;26.80;39188.53;5035880;28;20044;-62
2024/03/09 12:29:44;;;;;;;1.50;1.15;;;;;;;-145.63;26.47;39122.03;5052780;28;20029;-63
2024/03/09 12:35:36;;;;;;;1.00;0.90;;;;;;;-145.63;27.72;39161.13;5045474;28;20422;-66
2024/03/09 12:41:34;;;;;;;2.60;1.33;;;;;;;-145.63;26.36;39141.59;5040426;28;20540;-68
2024/03/09 12:44:19;;;;;;;2.50;1.00;;;;;;;-145.63;27.16;39170.91;5040608;28;20017;-64
2024/03/09 12:46:58;;;;;;;1.65;1.00;;;;;;;-145.63;26.61;39168.97;5035450;28;20043;-65
2024/03/09 12:49:46;;;;;;;1.52;1.13;;;;;;;-145.63;27.33;39174.84;5035905;28;20040;-66
2024/03/09 12:52:17;;;;;;;1.67;1.00;;;;;;;-145.63;26.55;39182.66;5029886;28;20051;-66
2024/03/09 12:54:59;;;;;;;1.60;1.23;;;;;;;-145.63;27.06;39137.69;5052320;28;20044;-66
2024/03/09 12:58:19;;;;;;;1.40;1.00;;;;;;;-145.63;26.89;39178.75;5035321;28;20045;-65
2024/03/09 13:01:44;;;;;;;1.33;0.80;;;;;;;-145.63;25.81;39153.31;5035791;28;20048;-66
2024/03/09 13:04:50;;;;;;;2.60;0.98;;;;;;;-145.63;26.80;39190.47;5035814;28;20034;-67
2024/03/09 13:10:36;;;;;;;3.95;1.25;;;;;;;-145.63;27.30;39153.31;5052315;28;20067;-62
2024/03/09 13:13:05;;;;;;;3.88;1.08;;;;;;;-145.63;28.13;39129.84;5048090;28;20095;-64
2024/03/09 13:15:35;;;;;;;1.63;1.30;;;;;;;-145.63;27.21;39172.88;5053536;28;20029;-65
2024/03/09 13:18:08;;;;;;;1.52;1.25;;;;;;;-145.63;26.66;39192.44;5055397;28;20048;-63
2024/03/09 13:20:58;;;;;;;1.70;1.30;;;;;;;-145.63;26.38;39133.75;5036706;28;20052;-65
2024/03/09 13:24:01;;;;;;;3.72;1.42;;;;;;;-145.63;26.06;39157.22;5044168;28;20029;-65